sensor_id;sensor_type;location;lat;lon;timestamp;P1;durP1;ratioP1;P2;durP2;ratioP2
57433;SDS011;43277;52.672;6.984;2023-06-22T00:01:52;40.67;;;36.35;;
57433;SDS011;43277;52.672;6.984;2023-06-22T00:04:18;39.05;;;35.15;;
57433;SDS011;43277;52.672;6.984;2023-06-22T00:06:43;36.83;;;32.95;;
57433;SDS011;43277;52.672;6.984;2023-06-22T00:09:09;36.58;;;32.75;;
57433;SDS011;43277;52.672;6.984;2023-06-22T00:11:36;40.70;;;36.35;;
57433;SDS011;43277;52.672;6.984;2023-06-22T00:14:02;38.88;;;34.92;;
57433;SDS011;43277;52.672;6.984;2023-06-22T00:16:28;39.47;;;35.22;;
57433;SDS011;43277;52.672;6.984;2023-06-22T00:18:53;37.42;;;33.42;;
57433;SDS011;43277;52.672;6.984;2023-06-22T00:21:19;42.35;;;37.88;;
57433;SDS011;43277;52.672;6.984;2023-06-22T00:23:45;37.65;;;33.42;;
57433;SDS011;43277;52.672;6.984;2023-06-22T00:26:12;36.55;;;32.65;;
57433;SDS011;43277;52.672;6.984;2023-06-22T00:28:38;34.70;;;30.65;;
57433;SDS011;43277;52.672;6.984;2023-06-22T00:31:04;38.10;;;33.03;;
57433;SDS011;43277;52.672;6.984;2023-06-22T00:33:29;34.20;;;30.60;;
57433;SDS011;43277;52.672;6.984;2023-06-22T00:35:55;40.17;;;34.15;;
57433;SDS011;43277;52.672;6.984;2023-06-22T00:38:21;38.53;;;34.42;;
57433;SDS011;43277;52.672;6.984;2023-06-22T00:40:46;36.05;;;32.15;;
57433;SDS011;43277;52.672;6.984;2023-06-22T00:43:12;41.97;;;35.78;;
57433;SDS011;43277;52.672;6.984;2023-06-22T00:45:37;39.45;;;34.28;;
57433;SDS011;43277;52.672;6.984;2023-06-22T00:48:03;42.95;;;37.15;;
57433;SDS011;43277;52.672;6.984;2023-06-22T00:50:30;46.78;;;36.97;;
57433;SDS011;43277;52.672;6.984;2023-06-22T00:53:05;38.15;;;34.15;;
57433;SDS011;43277;52.672;6.984;2023-06-22T00:55:35;37.65;;;33.55;;
57433;SDS011;43277;52.672;6.984;2023-06-22T00:58:07;40.10;;;35.80;;
57433;SDS011;43277;52.672;6.984;2023-06-22T01:00:35;48.63;;;41.45;;
57433;SDS011;43277;52.672;6.984;2023-06-22T01:03:02;38.15;;;34.15;;
57433;SDS011;43277;52.672;6.984;2023-06-22T01:05:28;39.55;;;35.22;;
57433;SDS011;43277;52.672;6.984;2023-06-22T01:08:04;45.80;;;40.85;;
57433;SDS011;43277;52.672;6.984;2023-06-22T01:10:43;43.03;;;37.42;;
57433;SDS011;43277;52.672;6.984;2023-06-22T01:16:08;46.95;;;40.05;;
57433;SDS011;43277;52.672;6.984;2023-06-22T01:18:42;41.15;;;36.72;;
57433;SDS011;43277;52.672;6.984;2023-06-22T01:21:09;43.00;;;37.65;;
57433;SDS011;43277;52.672;6.984;2023-06-22T01:29:20;47.15;;;42.05;;
57433;SDS011;43277;52.672;6.984;2023-06-22T01:31:47;46.67;;;41.65;;
57433;SDS011;43277;52.672;6.984;2023-06-22T01:34:15;45.33;;;40.50;;
57433;SDS011;43277;52.672;6.984;2023-06-22T01:36:42;44.13;;;39.42;;
57433;SDS011;43277;52.672;6.984;2023-06-22T01:39:09;43.20;;;38.70;;
57433;SDS011;43277;52.672;6.984;2023-06-22T01:41:37;51.25;;;42.80;;
57433;SDS011;43277;52.672;6.984;2023-06-22T01:44:06;49.05;;;43.88;;
57433;SDS011;43277;52.672;6.984;2023-06-22T01:46:36;48.70;;;42.33;;
57433;SDS011;43277;52.672;6.984;2023-06-22T01:49:03;43.85;;;39.13;;
57433;SDS011;43277;52.672;6.984;2023-06-22T01:51:31;49.65;;;43.33;;
57433;SDS011;43277;52.672;6.984;2023-06-22T01:53:57;46.92;;;42.03;;
57433;SDS011;43277;52.672;6.984;2023-06-22T01:56:22;49.97;;;44.70;;
57433;SDS011;43277;52.672;6.984;2023-06-22T01:58:57;50.40;;;44.95;;
57433;SDS011;43277;52.672;6.984;2023-06-22T02:01:31;46.47;;;40.97;;
57433;SDS011;43277;52.672;6.984;2023-06-22T02:04:13;59.10;;;48.00;;
57433;SDS011;43277;52.672;6.984;2023-06-22T02:06:46;53.35;;;46.50;;
57433;SDS011;43277;52.672;6.984;2023-06-22T02:09:16;49.78;;;43.05;;
57433;SDS011;43277;52.672;6.984;2023-06-22T02:11:45;53.65;;;47.83;;
57433;SDS011;43277;52.672;6.984;2023-06-22T02:14:13;60.90;;;51.97;;
57433;SDS011;43277;52.672;6.984;2023-06-22T02:16:39;47.67;;;42.40;;
57433;SDS011;43277;52.672;6.984;2023-06-22T02:19:06;53.58;;;47.38;;
57433;SDS011;43277;52.672;6.984;2023-06-22T02:21:31;53.38;;;45.22;;
57433;SDS011;43277;52.672;6.984;2023-06-22T02:23:57;50.20;;;44.90;;
57433;SDS011;43277;52.672;6.984;2023-06-22T02:26:25;51.67;;;45.92;;
57433;SDS011;43277;52.672;6.984;2023-06-22T02:28:51;47.95;;;43.00;;
57433;SDS011;43277;52.672;6.984;2023-06-22T02:31:17;53.33;;;47.30;;
57433;SDS011;43277;52.672;6.984;2023-06-22T02:33:43;51.55;;;45.83;;
57433;SDS011;43277;52.672;6.984;2023-06-22T02:36:09;51.85;;;46.28;;
57433;SDS011;43277;52.672;6.984;2023-06-22T02:38:38;45.80;;;40.67;;
57433;SDS011;43277;52.672;6.984;2023-06-22T02:41:13;54.15;;;47.83;;
57433;SDS011;43277;52.672;6.984;2023-06-22T02:43:48;61.72;;;52.17;;
57433;SDS011;43277;52.672;6.984;2023-06-22T02:46:13;56.08;;;49.70;;
57433;SDS011;43277;52.672;6.984;2023-06-22T02:48:42;52.42;;;46.53;;
57433;SDS011;43277;52.672;6.984;2023-06-22T02:51:08;58.60;;;48.78;;
57433;SDS011;43277;52.672;6.984;2023-06-22T02:53:33;57.78;;;49.80;;
57433;SDS011;43277;52.672;6.984;2023-06-22T02:56:01;57.28;;;51.08;;
57433;SDS011;43277;52.672;6.984;2023-06-22T02:58:30;54.08;;;48.17;;
57433;SDS011;43277;52.672;6.984;2023-06-22T03:01:04;58.75;;;52.33;;
57433;SDS011;43277;52.672;6.984;2023-06-22T03:03:30;61.60;;;54.67;;
57433;SDS011;43277;52.672;6.984;2023-06-22T03:05:56;56.45;;;50.28;;
57433;SDS011;43277;52.672;6.984;2023-06-22T03:08:22;54.95;;;49.08;;
57433;SDS011;43277;52.672;6.984;2023-06-22T03:10:47;67.32;;;55.22;;
57433;SDS011;43277;52.672;6.984;2023-06-22T03:13:13;64.57;;;56.65;;
57433;SDS011;43277;52.672;6.984;2023-06-22T03:15:39;60.80;;;54.03;;
57433;SDS011;43277;52.672;6.984;2023-06-22T03:18:04;50.60;;;45.17;;
57433;SDS011;43277;52.672;6.984;2023-06-22T03:20:30;60.33;;;53.88;;
57433;SDS011;43277;52.672;6.984;2023-06-22T03:22:58;71.75;;;59.35;;
57433;SDS011;43277;52.672;6.984;2023-06-22T03:25:24;56.00;;;50.03;;
57433;SDS011;43277;52.672;6.984;2023-06-22T03:27:49;62.60;;;54.75;;
57433;SDS011;43277;52.672;6.984;2023-06-22T03:30:15;58.08;;;51.65;;
57433;SDS011;43277;52.672;6.984;2023-06-22T03:32:41;59.17;;;52.25;;
57433;SDS011;43277;52.672;6.984;2023-06-22T03:35:08;62.55;;;54.83;;
57433;SDS011;43277;52.672;6.984;2023-06-22T03:37:37;60.50;;;53.92;;
57433;SDS011;43277;52.672;6.984;2023-06-22T03:40:03;63.38;;;54.53;;
57433;SDS011;43277;52.672;6.984;2023-06-22T03:42:30;60.83;;;54.33;;
57433;SDS011;43277;52.672;6.984;2023-06-22T03:44:56;56.45;;;50.65;;
57433;SDS011;43277;52.672;6.984;2023-06-22T03:47:22;55.90;;;49.85;;
57433;SDS011;43277;52.672;6.984;2023-06-22T03:49:48;55.45;;;49.08;;
57433;SDS011;43277;52.672;6.984;2023-06-22T03:52:14;58.17;;;51.53;;
57433;SDS011;43277;52.672;6.984;2023-06-22T03:54:39;53.33;;;47.78;;
57433;SDS011;43277;52.672;6.984;2023-06-22T03:57:05;59.33;;;51.83;;
57433;SDS011;43277;52.672;6.984;2023-06-22T03:59:31;55.67;;;49.58;;
57433;SDS011;43277;52.672;6.984;2023-06-22T04:01:57;68.93;;;55.88;;
57433;SDS011;43277;52.672;6.984;2023-06-22T04:04:23;64.03;;;55.17;;
57433;SDS011;43277;52.672;6.984;2023-06-22T04:06:48;62.70;;;55.38;;
57433;SDS011;43277;52.672;6.984;2023-06-22T04:09:14;59.20;;;52.72;;
57433;SDS011;43277;52.672;6.984;2023-06-22T04:11:39;57.72;;;51.08;;
57433;SDS011;43277;52.672;6.984;2023-06-22T04:14:05;50.97;;;45.55;;
57433;SDS011;43277;52.672;6.984;2023-06-22T04:16:31;52.47;;;47.05;;
57433;SDS011;43277;52.672;6.984;2023-06-22T04:18:56;54.28;;;47.03;;
57433;SDS011;43277;52.672;6.984;2023-06-22T04:21:22;51.50;;;45.92;;
57433;SDS011;43277;52.672;6.984;2023-06-22T04:23:47;58.28;;;47.55;;
57433;SDS011;43277;52.672;6.984;2023-06-22T04:26:13;52.85;;;47.22;;
57433;SDS011;43277;52.672;6.984;2023-06-22T04:28:39;53.67;;;47.88;;
57433;SDS011;43277;52.672;6.984;2023-06-22T04:31:05;58.75;;;51.33;;
57433;SDS011;43277;52.672;6.984;2023-06-22T04:33:31;46.35;;;41.55;;
57433;SDS011;43277;52.672;6.984;2023-06-22T04:35:57;52.47;;;46.50;;
57433;SDS011;43277;52.672;6.984;2023-06-22T04:38:23;60.40;;;51.60;;
57433;SDS011;43277;52.672;6.984;2023-06-22T04:40:50;59.38;;;50.28;;
57433;SDS011;43277;52.672;6.984;2023-06-22T04:43:15;53.60;;;47.83;;
57433;SDS011;43277;52.672;6.984;2023-06-22T04:45:41;49.08;;;43.70;;
57433;SDS011;43277;52.672;6.984;2023-06-22T04:48:07;53.03;;;47.30;;
57433;SDS011;43277;52.672;6.984;2023-06-22T04:50:34;50.55;;;45.03;;
57433;SDS011;43277;52.672;6.984;2023-06-22T04:53:06;61.70;;;50.15;;
57433;SDS011;43277;52.672;6.984;2023-06-22T04:55:32;56.38;;;49.00;;
57433;SDS011;43277;52.672;6.984;2023-06-22T04:57:58;54.33;;;48.45;;
57433;SDS011;43277;52.672;6.984;2023-06-22T05:00:29;57.60;;;50.17;;
57433;SDS011;43277;52.672;6.984;2023-06-22T05:02:55;54.03;;;47.58;;
57433;SDS011;43277;52.672;6.984;2023-06-22T05:05:23;48.75;;;43.47;;
57433;SDS011;43277;52.672;6.984;2023-06-22T05:07:50;51.58;;;45.85;;
57433;SDS011;43277;52.672;6.984;2023-06-22T05:10:18;52.55;;;47.10;;
57433;SDS011;43277;52.672;6.984;2023-06-22T05:12:45;49.58;;;44.08;;
57433;SDS011;43277;52.672;6.984;2023-06-22T05:15:11;61.97;;;50.35;;
57433;SDS011;43277;52.672;6.984;2023-06-22T05:17:37;48.08;;;42.88;;
57433;SDS011;43277;52.672;6.984;2023-06-22T05:20:08;52.72;;;46.95;;
57433;SDS011;43277;52.672;6.984;2023-06-22T05:22:35;53.75;;;47.88;;
57433;SDS011;43277;52.672;6.984;2023-06-22T05:25:00;51.65;;;46.20;;
57433;SDS011;43277;52.672;6.984;2023-06-22T05:27:26;50.42;;;45.10;;
57433;SDS011;43277;52.672;6.984;2023-06-22T05:29:51;48.65;;;43.40;;
57433;SDS011;43277;52.672;6.984;2023-06-22T05:32:17;44.78;;;39.97;;
57433;SDS011;43277;52.672;6.984;2023-06-22T05:34:43;45.30;;;40.10;;
57433;SDS011;43277;52.672;6.984;2023-06-22T05:37:09;49.03;;;42.38;;
57433;SDS011;43277;52.672;6.984;2023-06-22T05:39:35;46.20;;;41.38;;
57433;SDS011;43277;52.672;6.984;2023-06-22T05:42:04;43.20;;;38.75;;
57433;SDS011;43277;52.672;6.984;2023-06-22T05:44:30;37.90;;;33.95;;
57433;SDS011;43277;52.672;6.984;2023-06-22T05:46:56;37.85;;;34.15;;
57433;SDS011;43277;52.672;6.984;2023-06-22T05:49:22;37.80;;;33.88;;
57433;SDS011;43277;52.672;6.984;2023-06-22T05:51:49;37.72;;;33.95;;
57433;SDS011;43277;52.672;6.984;2023-06-22T05:54:15;36.90;;;33.20;;
57433;SDS011;43277;52.672;6.984;2023-06-22T05:56:42;32.88;;;29.50;;
57433;SDS011;43277;52.672;6.984;2023-06-22T05:59:08;37.25;;;33.25;;
57433;SDS011;43277;52.672;6.984;2023-06-22T06:01:34;35.05;;;31.33;;
57433;SDS011;43277;52.672;6.984;2023-06-22T06:04:00;32.35;;;28.92;;
57433;SDS011;43277;52.672;6.984;2023-06-22T06:06:27;31.67;;;28.38;;
57433;SDS011;43277;52.672;6.984;2023-06-22T06:08:53;29.52;;;26.42;;
57433;SDS011;43277;52.672;6.984;2023-06-22T06:11:19;28.58;;;25.17;;
57433;SDS011;43277;52.672;6.984;2023-06-22T06:13:45;24.95;;;22.35;;
57433;SDS011;43277;52.672;6.984;2023-06-22T06:16:11;26.40;;;23.58;;
57433;SDS011;43277;52.672;6.984;2023-06-22T06:18:37;24.02;;;21.48;;
57433;SDS011;43277;52.672;6.984;2023-06-22T06:21:03;23.27;;;20.88;;
57433;SDS011;43277;52.672;6.984;2023-06-22T06:23:28;20.17;;;18.05;;
57433;SDS011;43277;52.672;6.984;2023-06-22T06:25:54;22.00;;;19.27;;
57433;SDS011;43277;52.672;6.984;2023-06-22T06:28:20;18.20;;;16.25;;
57433;SDS011;43277;52.672;6.984;2023-06-22T06:30:46;20.95;;;18.75;;
57433;SDS011;43277;52.672;6.984;2023-06-22T06:33:12;22.75;;;20.45;;
57433;SDS011;43277;52.672;6.984;2023-06-22T06:35:38;19.55;;;16.08;;
57433;SDS011;43277;52.672;6.984;2023-06-22T06:38:04;17.38;;;15.57;;
57433;SDS011;43277;52.672;6.984;2023-06-22T06:40:29;18.02;;;15.60;;
57433;SDS011;43277;52.672;6.984;2023-06-22T06:42:55;14.93;;;13.43;;
57433;SDS011;43277;52.672;6.984;2023-06-22T06:45:21;18.02;;;13.80;;
57433;SDS011;43277;52.672;6.984;2023-06-22T06:47:48;17.58;;;14.00;;
57433;SDS011;43277;52.672;6.984;2023-06-22T06:50:14;15.55;;;12.02;;
57433;SDS011;43277;52.672;6.984;2023-06-22T06:52:40;15.70;;;12.30;;
57433;SDS011;43277;52.672;6.984;2023-06-22T06:55:07;13.73;;;11.23;;
57433;SDS011;43277;52.672;6.984;2023-06-22T06:57:36;12.30;;;10.13;;
57433;SDS011;43277;52.672;6.984;2023-06-22T07:00:07;13.98;;;10.85;;
57433;SDS011;43277;52.672;6.984;2023-06-22T07:02:42;13.48;;;9.82;;
57433;SDS011;43277;52.672;6.984;2023-06-22T07:05:09;15.20;;;12.05;;
57433;SDS011;43277;52.672;6.984;2023-06-22T07:07:36;13.48;;;9.95;;
57433;SDS011;43277;52.672;6.984;2023-06-22T07:10:02;12.68;;;9.82;;
57433;SDS011;43277;52.672;6.984;2023-06-22T07:12:28;13.60;;;9.80;;
57433;SDS011;43277;52.672;6.984;2023-06-22T07:15:01;10.32;;;8.27;;
57433;SDS011;43277;52.672;6.984;2023-06-22T07:17:30;10.48;;;7.85;;
57433;SDS011;43277;52.672;6.984;2023-06-22T07:19:56;14.43;;;8.13;;
57433;SDS011;43277;52.672;6.984;2023-06-22T07:22:22;12.25;;;8.25;;
57433;SDS011;43277;52.672;6.984;2023-06-22T07:24:47;12.90;;;8.25;;
57433;SDS011;43277;52.672;6.984;2023-06-22T07:27:14;10.65;;;8.10;;
57433;SDS011;43277;52.672;6.984;2023-06-22T07:29:43;10.57;;;7.15;;
57433;SDS011;43277;52.672;6.984;2023-06-22T07:32:08;14.10;;;9.32;;
57433;SDS011;43277;52.672;6.984;2023-06-22T07:34:34;11.18;;;7.55;;
57433;SDS011;43277;52.672;6.984;2023-06-22T07:37:00;11.77;;;7.40;;
57433;SDS011;43277;52.672;6.984;2023-06-22T07:39:26;10.38;;;7.22;;
57433;SDS011;43277;52.672;6.984;2023-06-22T07:41:51;10.35;;;7.40;;
57433;SDS011;43277;52.672;6.984;2023-06-22T07:44:18;10.73;;;7.45;;
57433;SDS011;43277;52.672;6.984;2023-06-22T07:46:43;11.95;;;7.32;;
57433;SDS011;43277;52.672;6.984;2023-06-22T07:49:09;10.88;;;7.22;;
57433;SDS011;43277;52.672;6.984;2023-06-22T07:51:36;11.30;;;9.52;;
57433;SDS011;43277;52.672;6.984;2023-06-22T07:54:01;13.35;;;6.82;;
57433;SDS011;43277;52.672;6.984;2023-06-22T07:56:27;10.75;;;8.40;;
57433;SDS011;43277;52.672;6.984;2023-06-22T07:58:53;11.57;;;7.15;;
57433;SDS011;43277;52.672;6.984;2023-06-22T08:01:18;9.25;;;6.10;;
57433;SDS011;43277;52.672;6.984;2023-06-22T08:03:47;11.00;;;7.13;;
57433;SDS011;43277;52.672;6.984;2023-06-22T08:06:13;11.40;;;8.02;;
57433;SDS011;43277;52.672;6.984;2023-06-22T08:08:39;11.02;;;7.60;;
57433;SDS011;43277;52.672;6.984;2023-06-22T08:11:05;11.85;;;6.95;;
57433;SDS011;43277;52.672;6.984;2023-06-22T08:13:31;9.77;;;6.47;;
57433;SDS011;43277;52.672;6.984;2023-06-22T08:15:57;8.82;;;6.43;;
57433;SDS011;43277;52.672;6.984;2023-06-22T08:18:22;10.07;;;6.78;;
57433;SDS011;43277;52.672;6.984;2023-06-22T08:20:48;10.60;;;8.65;;
57433;SDS011;43277;52.672;6.984;2023-06-22T08:23:14;12.60;;;9.38;;
57433;SDS011;43277;52.672;6.984;2023-06-22T08:25:40;10.32;;;6.88;;
57433;SDS011;43277;52.672;6.984;2023-06-22T08:28:06;8.80;;;6.35;;
57433;SDS011;43277;52.672;6.984;2023-06-22T08:30:32;9.25;;;5.90;;
57433;SDS011;43277;52.672;6.984;2023-06-22T08:32:57;12.25;;;6.18;;
57433;SDS011;43277;52.672;6.984;2023-06-22T08:35:23;10.43;;;6.22;;
57433;SDS011;43277;52.672;6.984;2023-06-22T08:37:49;9.88;;;6.68;;
57433;SDS011;43277;52.672;6.984;2023-06-22T08:40:20;10.05;;;5.75;;
57433;SDS011;43277;52.672;6.984;2023-06-22T08:42:46;9.52;;;7.70;;
57433;SDS011;43277;52.672;6.984;2023-06-22T08:45:13;9.18;;;6.15;;
57433;SDS011;43277;52.672;6.984;2023-06-22T08:47:40;9.68;;;6.13;;
57433;SDS011;43277;52.672;6.984;2023-06-22T08:50:06;8.77;;;6.10;;
57433;SDS011;43277;52.672;6.984;2023-06-22T08:52:33;9.25;;;4.97;;
57433;SDS011;43277;52.672;6.984;2023-06-22T08:54:59;8.65;;;5.40;;
57433;SDS011;43277;52.672;6.984;2023-06-22T08:57:25;12.80;;;8.70;;
57433;SDS011;43277;52.672;6.984;2023-06-22T08:59:51;9.65;;;6.13;;
57433;SDS011;43277;52.672;6.984;2023-06-22T09:02:18;9.75;;;5.53;;
57433;SDS011;43277;52.672;6.984;2023-06-22T09:04:45;9.75;;;6.05;;
57433;SDS011;43277;52.672;6.984;2023-06-22T09:07:11;11.18;;;6.45;;
57433;SDS011;43277;52.672;6.984;2023-06-22T09:09:36;8.45;;;5.68;;
57433;SDS011;43277;52.672;6.984;2023-06-22T09:12:02;9.23;;;5.65;;
57433;SDS011;43277;52.672;6.984;2023-06-22T09:14:28;8.27;;;6.05;;
57433;SDS011;43277;52.672;6.984;2023-06-22T09:16:54;9.20;;;5.43;;
57433;SDS011;43277;52.672;6.984;2023-06-22T09:19:20;8.80;;;5.65;;
57433;SDS011;43277;52.672;6.984;2023-06-22T09:21:45;8.80;;;5.60;;
57433;SDS011;43277;52.672;6.984;2023-06-22T09:24:11;10.13;;;5.80;;
57433;SDS011;43277;52.672;6.984;2023-06-22T09:26:36;9.50;;;5.80;;
57433;SDS011;43277;52.672;6.984;2023-06-22T09:29:04;10.90;;;5.45;;
57433;SDS011;43277;52.672;6.984;2023-06-22T09:31:30;8.85;;;5.13;;
57433;SDS011;43277;52.672;6.984;2023-06-22T09:33:56;9.27;;;5.60;;
57433;SDS011;43277;52.672;6.984;2023-06-22T09:36:22;8.30;;;5.22;;
57433;SDS011;43277;52.672;6.984;2023-06-22T09:38:48;8.30;;;5.15;;
57433;SDS011;43277;52.672;6.984;2023-06-22T09:41:14;9.98;;;5.13;;
57433;SDS011;43277;52.672;6.984;2023-06-22T09:43:40;9.73;;;6.30;;
57433;SDS011;43277;52.672;6.984;2023-06-22T09:46:06;9.82;;;6.18;;
57433;SDS011;43277;52.672;6.984;2023-06-22T09:48:32;9.80;;;7.53;;
57433;SDS011;43277;52.672;6.984;2023-06-22T09:51:00;7.63;;;4.85;;
57433;SDS011;43277;52.672;6.984;2023-06-22T09:53:26;7.50;;;4.90;;
57433;SDS011;43277;52.672;6.984;2023-06-22T09:55:52;10.27;;;5.50;;
57433;SDS011;43277;52.672;6.984;2023-06-22T09:58:17;8.25;;;5.40;;
57433;SDS011;43277;52.672;6.984;2023-06-22T10:00:43;10.50;;;5.88;;
57433;SDS011;43277;52.672;6.984;2023-06-22T10:03:08;8.05;;;4.85;;
57433;SDS011;43277;52.672;6.984;2023-06-22T10:05:34;9.98;;;5.18;;
57433;SDS011;43277;52.672;6.984;2023-06-22T10:08:00;8.80;;;5.45;;
57433;SDS011;43277;52.672;6.984;2023-06-22T10:10:25;9.65;;;7.82;;
57433;SDS011;43277;52.672;6.984;2023-06-22T10:12:55;10.57;;;5.55;;
57433;SDS011;43277;52.672;6.984;2023-06-22T10:15:22;7.85;;;5.10;;
57433;SDS011;43277;52.672;6.984;2023-06-22T10:17:48;8.00;;;5.45;;
57433;SDS011;43277;52.672;6.984;2023-06-22T10:20:14;7.70;;;5.95;;
57433;SDS011;43277;52.672;6.984;2023-06-22T10:22:40;8.82;;;5.75;;
57433;SDS011;43277;52.672;6.984;2023-06-22T10:25:08;8.77;;;5.38;;
57433;SDS011;43277;52.672;6.984;2023-06-22T10:27:34;8.48;;;4.68;;
57433;SDS011;43277;52.672;6.984;2023-06-22T10:30:00;8.18;;;4.95;;
57433;SDS011;43277;52.672;6.984;2023-06-22T10:32:26;10.55;;;5.20;;
57433;SDS011;43277;52.672;6.984;2023-06-22T10:34:53;9.52;;;5.05;;
57433;SDS011;43277;52.672;6.984;2023-06-22T10:37:19;8.88;;;5.18;;
57433;SDS011;43277;52.672;6.984;2023-06-22T10:39:45;6.68;;;4.57;;
57433;SDS011;43277;52.672;6.984;2023-06-22T10:42:11;8.45;;;5.32;;
57433;SDS011;43277;52.672;6.984;2023-06-22T10:44:37;7.65;;;5.20;;
57433;SDS011;43277;52.672;6.984;2023-06-22T10:47:04;8.13;;;4.53;;
57433;SDS011;43277;52.672;6.984;2023-06-22T10:49:29;10.13;;;6.15;;
57433;SDS011;43277;52.672;6.984;2023-06-22T10:51:55;8.30;;;5.15;;
57433;SDS011;43277;52.672;6.984;2023-06-22T10:54:21;7.68;;;5.13;;
57433;SDS011;43277;52.672;6.984;2023-06-22T10:56:46;7.78;;;5.82;;
57433;SDS011;43277;52.672;6.984;2023-06-22T10:59:12;8.68;;;5.70;;
57433;SDS011;43277;52.672;6.984;2023-06-22T11:01:38;8.18;;;4.30;;
57433;SDS011;43277;52.672;6.984;2023-06-22T11:04:03;8.95;;;5.30;;
57433;SDS011;43277;52.672;6.984;2023-06-22T11:06:29;10.07;;;6.30;;
57433;SDS011;43277;52.672;6.984;2023-06-22T11:08:55;7.68;;;5.78;;
57433;SDS011;43277;52.672;6.984;2023-06-22T11:11:20;9.35;;;5.53;;
57433;SDS011;43277;52.672;6.984;2023-06-22T11:13:46;9.00;;;5.28;;
57433;SDS011;43277;52.672;6.984;2023-06-22T11:16:12;8.05;;;4.63;;
57433;SDS011;43277;52.672;6.984;2023-06-22T11:18:37;8.50;;;4.68;;
57433;SDS011;43277;52.672;6.984;2023-06-22T11:21:03;8.77;;;5.00;;
57433;SDS011;43277;52.672;6.984;2023-06-22T11:23:28;8.55;;;6.22;;
57433;SDS011;43277;52.672;6.984;2023-06-22T11:25:55;8.65;;;4.57;;
57433;SDS011;43277;52.672;6.984;2023-06-22T11:28:20;10.35;;;4.30;;
57433;SDS011;43277;52.672;6.984;2023-06-22T11:30:46;7.82;;;5.25;;
57433;SDS011;43277;52.672;6.984;2023-06-22T11:33:11;7.78;;;4.47;;
57433;SDS011;43277;52.672;6.984;2023-06-22T11:35:37;7.65;;;4.38;;
57433;SDS011;43277;52.672;6.984;2023-06-22T11:38:03;8.48;;;5.38;;
57433;SDS011;43277;52.672;6.984;2023-06-22T11:40:30;8.18;;;5.20;;
57433;SDS011;43277;52.672;6.984;2023-06-22T11:42:55;8.45;;;5.75;;
57433;SDS011;43277;52.672;6.984;2023-06-22T11:45:21;9.60;;;6.72;;
57433;SDS011;43277;52.672;6.984;2023-06-22T11:47:47;7.20;;;4.20;;
57433;SDS011;43277;52.672;6.984;2023-06-22T11:50:12;8.13;;;5.28;;
57433;SDS011;43277;52.672;6.984;2023-06-22T11:52:38;7.68;;;4.10;;
57433;SDS011;43277;52.672;6.984;2023-06-22T11:55:05;9.23;;;6.10;;
57433;SDS011;43277;52.672;6.984;2023-06-22T11:57:35;7.28;;;4.35;;
57433;SDS011;43277;52.672;6.984;2023-06-22T12:00:02;6.63;;;4.35;;
57433;SDS011;43277;52.672;6.984;2023-06-22T12:02:39;6.53;;;4.53;;
57433;SDS011;43277;52.672;6.984;2023-06-22T12:05:05;6.30;;;4.13;;
57433;SDS011;43277;52.672;6.984;2023-06-22T12:07:31;7.47;;;4.38;;
57433;SDS011;43277;52.672;6.984;2023-06-22T12:09:56;8.65;;;4.38;;
57433;SDS011;43277;52.672;6.984;2023-06-22T12:12:22;7.07;;;4.00;;
57433;SDS011;43277;52.672;6.984;2023-06-22T12:14:48;6.40;;;3.80;;
57433;SDS011;43277;52.672;6.984;2023-06-22T12:17:13;7.22;;;4.13;;
57433;SDS011;43277;52.672;6.984;2023-06-22T12:19:39;6.70;;;3.95;;
57433;SDS011;43277;52.672;6.984;2023-06-22T12:22:04;7.75;;;3.97;;
57433;SDS011;43277;52.672;6.984;2023-06-22T12:24:30;7.15;;;4.35;;
57433;SDS011;43277;52.672;6.984;2023-06-22T12:26:56;7.60;;;4.03;;
57433;SDS011;43277;52.672;6.984;2023-06-22T12:29:21;8.88;;;4.55;;
57433;SDS011;43277;52.672;6.984;2023-06-22T12:31:47;7.53;;;3.90;;
57433;SDS011;43277;52.672;6.984;2023-06-22T12:34:12;8.27;;;5.05;;
57433;SDS011;43277;52.672;6.984;2023-06-22T12:36:38;7.43;;;4.13;;
57433;SDS011;43277;52.672;6.984;2023-06-22T12:39:04;7.38;;;4.30;;
57433;SDS011;43277;52.672;6.984;2023-06-22T12:41:29;7.28;;;4.43;;
57433;SDS011;43277;52.672;6.984;2023-06-22T12:43:55;7.53;;;3.80;;
57433;SDS011;43277;52.672;6.984;2023-06-22T12:46:20;6.93;;;4.35;;
57433;SDS011;43277;52.672;6.984;2023-06-22T12:48:46;6.60;;;4.15;;
57433;SDS011;43277;52.672;6.984;2023-06-22T12:51:12;6.65;;;4.03;;
57433;SDS011;43277;52.672;6.984;2023-06-22T12:53:46;6.03;;;4.00;;
57433;SDS011;43277;52.672;6.984;2023-06-22T12:56:11;9.35;;;4.88;;
57433;SDS011;43277;52.672;6.984;2023-06-22T12:58:37;6.20;;;3.42;;
57433;SDS011;43277;52.672;6.984;2023-06-22T13:01:02;8.35;;;4.03;;
57433;SDS011;43277;52.672;6.984;2023-06-22T13:03:28;8.88;;;4.13;;
57433;SDS011;43277;52.672;6.984;2023-06-22T13:05:54;9.20;;;3.97;;
57433;SDS011;43277;52.672;6.984;2023-06-22T13:08:20;10.73;;;4.32;;
57433;SDS011;43277;52.672;6.984;2023-06-22T13:10:45;7.43;;;4.05;;
57433;SDS011;43277;52.672;6.984;2023-06-22T13:13:11;6.60;;;4.22;;
57433;SDS011;43277;52.672;6.984;2023-06-22T13:15:37;8.20;;;4.13;;
57433;SDS011;43277;52.672;6.984;2023-06-22T13:18:02;7.63;;;4.30;;
57433;SDS011;43277;52.672;6.984;2023-06-22T13:20:28;7.30;;;4.40;;
57433;SDS011;43277;52.672;6.984;2023-06-22T13:22:54;7.38;;;4.28;;
57433;SDS011;43277;52.672;6.984;2023-06-22T13:25:21;7.30;;;4.22;;
57433;SDS011;43277;52.672;6.984;2023-06-22T13:27:48;12.32;;;4.25;;
57433;SDS011;43277;52.672;6.984;2023-06-22T13:30:15;6.93;;;4.00;;
57433;SDS011;43277;52.672;6.984;2023-06-22T13:32:41;7.18;;;3.95;;
57433;SDS011;43277;52.672;6.984;2023-06-22T13:35:07;7.75;;;4.28;;
57433;SDS011;43277;52.672;6.984;2023-06-22T13:37:34;8.68;;;4.10;;
57433;SDS011;43277;52.672;6.984;2023-06-22T13:40:00;8.95;;;4.82;;
57433;SDS011;43277;52.672;6.984;2023-06-22T13:42:28;7.72;;;5.32;;
57433;SDS011;43277;52.672;6.984;2023-06-22T13:44:53;8.00;;;4.93;;
57433;SDS011;43277;52.672;6.984;2023-06-22T13:47:19;7.30;;;4.93;;
57433;SDS011;43277;52.672;6.984;2023-06-22T13:49:45;8.68;;;5.15;;
57433;SDS011;43277;52.672;6.984;2023-06-22T13:52:10;9.48;;;5.55;;
57433;SDS011;43277;52.672;6.984;2023-06-22T13:54:37;7.90;;;6.15;;
57433;SDS011;43277;52.672;6.984;2023-06-22T13:57:03;9.52;;;5.55;;
57433;SDS011;43277;52.672;6.984;2023-06-22T13:59:29;8.75;;;5.93;;
57433;SDS011;43277;52.672;6.984;2023-06-22T14:01:55;9.82;;;6.15;;
57433;SDS011;43277;52.672;6.984;2023-06-22T14:04:22;9.05;;;6.20;;
57433;SDS011;43277;52.672;6.984;2023-06-22T14:06:48;7.75;;;6.07;;
57433;SDS011;43277;52.672;6.984;2023-06-22T14:09:14;9.80;;;6.07;;
57433;SDS011;43277;52.672;6.984;2023-06-22T14:11:39;8.13;;;5.80;;
57433;SDS011;43277;52.672;6.984;2023-06-22T14:14:05;10.60;;;6.53;;
57433;SDS011;43277;52.672;6.984;2023-06-22T14:16:30;8.35;;;7.00;;
57433;SDS011;43277;52.672;6.984;2023-06-22T14:18:56;8.43;;;6.57;;
57433;SDS011;43277;52.672;6.984;2023-06-22T14:21:22;9.77;;;6.78;;
57433;SDS011;43277;52.672;6.984;2023-06-22T14:23:47;9.10;;;7.35;;
57433;SDS011;43277;52.672;6.984;2023-06-22T14:26:17;11.43;;;7.82;;
57433;SDS011;43277;52.672;6.984;2023-06-22T14:28:46;11.32;;;8.07;;
57433;SDS011;43277;52.672;6.984;2023-06-22T14:31:17;10.20;;;7.35;;
57433;SDS011;43277;52.672;6.984;2023-06-22T14:33:47;10.60;;;7.77;;
57433;SDS011;43277;52.672;6.984;2023-06-22T14:36:14;13.88;;;8.30;;
57433;SDS011;43277;52.672;6.984;2023-06-22T14:38:43;13.43;;;8.88;;